sensor_id;sensor_type;location;lat;lon;timestamp;pressure;altitude;pressure_sealevel;temperature
48628;BMP280;34424;52.234;6.500;2023-05-29T00:03:26;102288;;;8.31
48628;BMP280;34424;52.234;6.500;2023-05-29T00:08:26;102289;;;8.19
48628;BMP280;34424;52.234;6.500;2023-05-29T00:13:26;102287.4;;;8.08
48628;BMP280;34424;52.234;6.500;2023-05-29T00:18:26;102288.5;;;8.06
48628;BMP280;34424;52.234;6.500;2023-05-29T00:23:27;102290.7;;;7.99
48628;BMP280;34424;52.234;6.500;2023-05-29T00:28:26;102292.8;;;7.93
48628;BMP280;34424;52.234;6.500;2023-05-29T00:33:26;102295.3;;;7.87
48628;BMP280;34424;52.234;6.500;2023-05-29T00:38:26;102299.4;;;7.8
48628;BMP280;34424;52.234;6.500;2023-05-29T00:43:26;102302.6;;;7.76
48628;BMP280;34424;52.234;6.500;2023-05-29T00:48:27;102296.5;;;7.78
48628;BMP280;34424;52.234;6.500;2023-05-29T00:53:27;102300;;;7.69
48628;BMP280;34424;52.234;6.500;2023-05-29T00:58:26;102298;;;7.65
48628;BMP280;34424;52.234;6.500;2023-05-29T01:03:27;102299.8;;;7.56
48628;BMP280;34424;52.234;6.500;2023-05-29T01:08:27;102301.2;;;7.47
48628;BMP280;34424;52.234;6.500;2023-05-29T01:13:27;102312.3;;;7.39
48628;BMP280;34424;52.234;6.500;2023-05-29T01:18:28;102313.1;;;7.36
48628;BMP280;34424;52.234;6.500;2023-05-29T01:23:33;102319.4;;;7.3
48628;BMP280;34424;52.234;6.500;2023-05-29T01:28:27;102321.8;;;7.23
48628;BMP280;34424;52.234;6.500;2023-05-29T01:33:27;102328.8;;;7.14
48628;BMP280;34424;52.234;6.500;2023-05-29T01:38:27;102329.3;;;7.13
48628;BMP280;34424;52.234;6.500;2023-05-29T01:43:27;102339.3;;;7.08
48628;BMP280;34424;52.234;6.500;2023-05-29T01:48:27;102343.4;;;7.07
48628;BMP280;34424;52.234;6.500;2023-05-29T01:53:27;102342.3;;;7
48628;BMP280;34424;52.234;6.500;2023-05-29T01:58:27;102352.8;;;6.97
48628;BMP280;34424;52.234;6.500;2023-05-29T02:03:27;102354.1;;;6.94
48628;BMP280;34424;52.234;6.500;2023-05-29T02:08:27;102353.6;;;6.92
48628;BMP280;34424;52.234;6.500;2023-05-29T02:13:27;102357.1;;;6.91
48628;BMP280;34424;52.234;6.500;2023-05-29T02:18:27;102352.2;;;6.83
48628;BMP280;34424;52.234;6.500;2023-05-29T02:23:27;102345;;;6.82
48628;BMP280;34424;52.234;6.500;2023-05-29T02:28:27;102336;;;6.79
48628;BMP280;34424;52.234;6.500;2023-05-29T02:33:27;102333.8;;;6.72
48628;BMP280;34424;52.234;6.500;2023-05-29T02:38:27;102332.3;;;6.62
48628;BMP280;34424;52.234;6.500;2023-05-29T02:43:27;102339.3;;;6.59
48628;BMP280;34424;52.234;6.500;2023-05-29T02:48:27;102337.1;;;6.56
48628;BMP280;34424;52.234;6.500;2023-05-29T02:53:27;102348.2;;;6.57
48628;BMP280;34424;52.234;6.500;2023-05-29T02:58:27;102354.3;;;6.52
48628;BMP280;34424;52.234;6.500;2023-05-29T03:03:27;102356.8;;;6.46
48628;BMP280;34424;52.234;6.500;2023-05-29T03:08:27;102360.1;;;6.38
48628;BMP280;34424;52.234;6.500;2023-05-29T03:13:27;102345.9;;;6.36
48628;BMP280;34424;52.234;6.500;2023-05-29T03:18:27;102360.3;;;6.35
48628;BMP280;34424;52.234;6.500;2023-05-29T03:23:27;102343.7;;;6.32
48628;BMP280;34424;52.234;6.500;2023-05-29T03:28:27;102332;;;6.31
48628;BMP280;34424;52.234;6.500;2023-05-29T03:33:27;102334.4;;;6.28
48628;BMP280;34424;52.234;6.500;2023-05-29T03:38:27;102346.5;;;6.27
48628;BMP280;34424;52.234;6.500;2023-05-29T03:43:27;102340.8;;;6.29
48628;BMP280;34424;52.234;6.500;2023-05-29T03:48:27;102345.8;;;6.34
48628;BMP280;34424;52.234;6.500;2023-05-29T03:53:27;102350.7;;;6.35
48628;BMP280;34424;52.234;6.500;2023-05-29T03:58:27;102358.1;;;6.42
48628;BMP280;34424;52.234;6.500;2023-05-29T04:03:27;102361.1;;;6.48
48628;BMP280;34424;52.234;6.500;2023-05-29T04:08:27;102367.1;;;6.52
48628;BMP280;34424;52.234;6.500;2023-05-29T04:13:27;102366.4;;;6.59
48628;BMP280;34424;52.234;6.500;2023-05-29T04:18:27;102372.6;;;6.66
48628;BMP280;34424;52.234;6.500;2023-05-29T04:23:27;102369.6;;;6.74
48628;BMP280;34424;52.234;6.500;2023-05-29T04:28:27;102375.2;;;6.87
48628;BMP280;34424;52.234;6.500;2023-05-29T04:33:27;102388.7;;;6.99
48628;BMP280;34424;52.234;6.500;2023-05-29T04:38:27;102397.6;;;7.1
48628;BMP280;34424;52.234;6.500;2023-05-29T04:43:27;102405.9;;;7.28
48628;BMP280;34424;52.234;6.500;2023-05-29T04:48:27;102410.6;;;7.46
48628;BMP280;34424;52.234;6.500;2023-05-29T04:53:27;102402.8;;;7.74
48628;BMP280;34424;52.234;6.500;2023-05-29T04:58:27;102402.4;;;8.24
48628;BMP280;34424;52.234;6.500;2023-05-29T05:03:27;102405.5;;;9.25
48628;BMP280;34424;52.234;6.500;2023-05-29T05:08:27;102405.5;;;9.9
48628;BMP280;34424;52.234;6.500;2023-05-29T05:13:27;102414.8;;;10.93
48628;BMP280;34424;52.234;6.500;2023-05-29T05:18:27;102412.4;;;11.42
48628;BMP280;34424;52.234;6.500;2023-05-29T05:23:27;102413.5;;;12.01
48628;BMP280;34424;52.234;6.500;2023-05-29T05:28:27;102418.9;;;12.55
48628;BMP280;34424;52.234;6.500;2023-05-29T05:33:27;102412.3;;;12.55
48628;BMP280;34424;52.234;6.500;2023-05-29T05:38:27;102419.7;;;12.61
48628;BMP280;34424;52.234;6.500;2023-05-29T05:43:27;102420;;;12.71
48628;BMP280;34424;52.234;6.500;2023-05-29T05:48:27;102422.9;;;12.9
48628;BMP280;34424;52.234;6.500;2023-05-29T05:53:27;102419.9;;;13.48
48628;BMP280;34424;52.234;6.500;2023-05-29T05:58:27;102418.3;;;13.89
48628;BMP280;34424;52.234;6.500;2023-05-29T06:03:27;102406.1;;;14.59
48628;BMP280;34424;52.234;6.500;2023-05-29T06:08:27;102415.6;;;14.02
48628;BMP280;34424;52.234;6.500;2023-05-29T06:13:27;102420.9;;;14.43
48628;BMP280;34424;52.234;6.500;2023-05-29T06:18:27;102419.6;;;15.06
48628;BMP280;34424;52.234;6.500;2023-05-29T06:23:27;102425.1;;;15.26
48628;BMP280;34424;52.234;6.500;2023-05-29T06:28:27;102432.9;;;15.55
48628;BMP280;34424;52.234;6.500;2023-05-29T06:33:27;102424.3;;;15.27
48628;BMP280;34424;52.234;6.500;2023-05-29T06:38:27;102421.8;;;16.25
48628;BMP280;34424;52.234;6.500;2023-05-29T06:43:27;102420.1;;;16.96
48628;BMP280;34424;52.234;6.500;2023-05-29T06:48:27;102432.3;;;17.07
48628;BMP280;34424;52.234;6.500;2023-05-29T06:53:27;102441.4;;;16.66
48628;BMP280;34424;52.234;6.500;2023-05-29T06:58:27;102441.7;;;17.2
48628;BMP280;34424;52.234;6.500;2023-05-29T07:03:27;102444.3;;;17.33
48628;BMP280;34424;52.234;6.500;2023-05-29T07:08:27;102450.9;;;17.66
48628;BMP280;34424;52.234;6.500;2023-05-29T07:13:27;102440.3;;;18.06
48628;BMP280;34424;52.234;6.500;2023-05-29T07:18:27;102448.6;;;18.14
48628;BMP280;34424;52.234;6.500;2023-05-29T07:23:27;102457.9;;;18.2
48628;BMP280;34424;52.234;6.500;2023-05-29T07:28:27;102454.7;;;18.66
48628;BMP280;34424;52.234;6.500;2023-05-29T07:33:27;102458.2;;;18.81
48628;BMP280;34424;52.234;6.500;2023-05-29T07:38:27;102456.6;;;19.03
48628;BMP280;34424;52.234;6.500;2023-05-29T07:43:27;102458.9;;;19.47
48628;BMP280;34424;52.234;6.500;2023-05-29T07:48:27;102462.2;;;19.67
48628;BMP280;34424;52.234;6.500;2023-05-29T07:53:27;102459.6;;;19.34
48628;BMP280;34424;52.234;6.500;2023-05-29T07:58:27;102451.5;;;20.05
48628;BMP280;34424;52.234;6.500;2023-05-29T08:03:27;102458.4;;;20.17
48628;BMP280;34424;52.234;6.500;2023-05-29T08:08:27;102464;;;20.79
48628;BMP280;34424;52.234;6.500;2023-05-29T08:13:29;102460.1;;;20.96
48628;BMP280;34424;52.234;6.500;2023-05-29T08:18:30;102458.4;;;20.08
48628;BMP280;34424;52.234;6.500;2023-05-29T08:23:27;102461.5;;;20.19
48628;BMP280;34424;52.234;6.500;2023-05-29T08:28:27;102463.7;;;19.32
48628;BMP280;34424;52.234;6.500;2023-05-29T08:33:27;102464.4;;;19.58
48628;BMP280;34424;52.234;6.500;2023-05-29T08:38:27;102467.2;;;20.12
48628;BMP280;34424;52.234;6.500;2023-05-29T08:43:28;102470.2;;;20.45
48628;BMP280;34424;52.234;6.500;2023-05-29T08:48:27;102471.2;;;20.64
48628;BMP280;34424;52.234;6.500;2023-05-29T08:53:27;102472.4;;;21.9
48628;BMP280;34424;52.234;6.500;2023-05-29T08:58:27;102476.4;;;21.16
48628;BMP280;34424;52.234;6.500;2023-05-29T09:03:27;102472.5;;;21.21
48628;BMP280;34424;52.234;6.500;2023-05-29T09:08:27;102472.2;;;21.17
48628;BMP280;34424;52.234;6.500;2023-05-29T09:13:27;102471;;;21.79
48628;BMP280;34424;52.234;6.500;2023-05-29T09:18:27;102477.5;;;21.65
48628;BMP280;34424;52.234;6.500;2023-05-29T09:23:27;102471.4;;;21.26
48628;BMP280;34424;52.234;6.500;2023-05-29T09:28:27;102468.3;;;22.42
48628;BMP280;34424;52.234;6.500;2023-05-29T09:33:27;102473.9;;;22.06
48628;BMP280;34424;52.234;6.500;2023-05-29T09:38:27;102466.5;;;22.28
48628;BMP280;34424;52.234;6.500;2023-05-29T09:43:27;102480;;;22.18
48628;BMP280;34424;52.234;6.500;2023-05-29T09:48:27;102476.1;;;21.39
48628;BMP280;34424;52.234;6.500;2023-05-29T09:53:27;102479.9;;;21.1
48628;BMP280;34424;52.234;6.500;2023-05-29T09:58:27;102471.8;;;21.69
48628;BMP280;34424;52.234;6.500;2023-05-29T10:03:27;102473.2;;;22.45
48628;BMP280;34424;52.234;6.500;2023-05-29T10:08:27;102463.3;;;22.27
48628;BMP280;34424;52.234;6.500;2023-05-29T10:13:27;102470.9;;;21.87
48628;BMP280;34424;52.234;6.500;2023-05-29T10:18:27;102458.2;;;22.48
48628;BMP280;34424;52.234;6.500;2023-05-29T10:23:28;102457.3;;;22.3
48628;BMP280;34424;52.234;6.500;2023-05-29T10:28:27;102453;;;22.59
48628;BMP280;34424;52.234;6.500;2023-05-29T10:33:33;102447.9;;;22.18
48628;BMP280;34424;52.234;6.500;2023-05-29T10:38:27;102449.6;;;22
48628;BMP280;34424;52.234;6.500;2023-05-29T10:43:34;102446.7;;;21.63
48628;BMP280;34424;52.234;6.500;2023-05-29T10:48:39;102443.1;;;22.39
48628;BMP280;34424;52.234;6.500;2023-05-29T10:53:31;102439.5;;;22.53
48628;BMP280;34424;52.234;6.500;2023-05-29T10:58:27;102441.8;;;22.88
48628;BMP280;34424;52.234;6.500;2023-05-29T11:03:29;102439.9;;;22.94
48628;BMP280;34424;52.234;6.500;2023-05-29T11:08:32;102430.8;;;22.66
48628;BMP280;34424;52.234;6.500;2023-05-29T11:13:30;102437.2;;;23.04
48628;BMP280;34424;52.234;6.500;2023-05-29T11:18:27;102435;;;22.46
48628;BMP280;34424;52.234;6.500;2023-05-29T11:23:27;102435.4;;;22.84
48628;BMP280;34424;52.234;6.500;2023-05-29T11:28:27;102436.2;;;22.29
48628;BMP280;34424;52.234;6.500;2023-05-29T11:33:27;102437.6;;;21.87
48628;BMP280;34424;52.234;6.500;2023-05-29T11:38:27;102432.4;;;22.44
48628;BMP280;34424;52.234;6.500;2023-05-29T11:43:27;102437.1;;;22.46
48628;BMP280;34424;52.234;6.500;2023-05-29T11:48:27;102439.4;;;22.05
48628;BMP280;34424;52.234;6.500;2023-05-29T11:53:29;102431.7;;;21.64
48628;BMP280;34424;52.234;6.500;2023-05-29T11:58:27;102441.1;;;21.49
48628;BMP280;34424;52.234;6.500;2023-05-29T12:03:27;102433.2;;;22.18
48628;BMP280;34424;52.234;6.500;2023-05-29T12:08:27;102425.4;;;22.76
48628;BMP280;34424;52.234;6.500;2023-05-29T12:13:27;102425.6;;;22.64
48628;BMP280;34424;52.234;6.500;2023-05-29T12:18:27;102421.9;;;22.45
48628;BMP280;34424;52.234;6.500;2023-05-29T12:23:27;102411.8;;;22.9
48628;BMP280;34424;52.234;6.500;2023-05-29T12:28:27;102416.8;;;21.96
48628;BMP280;34424;52.234;6.500;2023-05-29T12:33:32;102417.5;;;21.6
48628;BMP280;34424;52.234;6.500;2023-05-29T12:38:27;102415.3;;;22.29
48628;BMP280;34424;52.234;6.500;2023-05-29T12:43:27;102417.6;;;21.92
48628;BMP280;34424;52.234;6.500;2023-05-29T12:48:29;102421.7;;;22.05
48628;BMP280;34424;52.234;6.500;2023-05-29T12:53:28;102420;;;22.67
48628;BMP280;34424;52.234;6.500;2023-05-29T12:58:27;102415.8;;;22.71
48628;BMP280;34424;52.234;6.500;2023-05-29T13:03:27;102415.7;;;21.99
48628;BMP280;34424;52.234;6.500;2023-05-29T13:08:27;102417.5;;;22.38
48628;BMP280;34424;52.234;6.500;2023-05-29T13:13:27;102419.9;;;22.05
48628;BMP280;34424;52.234;6.500;2023-05-29T13:18:27;102420.3;;;21.32
48628;BMP280;34424;52.234;6.500;2023-05-29T13:23:27;102415;;;21.03
48628;BMP280;34424;52.234;6.500;2023-05-29T13:28:27;102421.6;;;21.29
48628;BMP280;34424;52.234;6.500;2023-05-29T13:33:27;102411;;;21.33
48628;BMP280;34424;52.234;6.500;2023-05-29T13:38:27;102401.4;;;21.24
48628;BMP280;34424;52.234;6.500;2023-05-29T13:43:27;102415.7;;;21.29
48628;BMP280;34424;52.234;6.500;2023-05-29T13:48:27;102413.7;;;21.57
48628;BMP280;34424;52.234;6.500;2023-05-29T13:53:27;102410.5;;;21.25
48628;BMP280;34424;52.234;6.500;2023-05-29T13:58:27;102409.6;;;21.08
48628;BMP280;34424;52.234;6.500;2023-05-29T14:03:27;102406.5;;;20.85
48628;BMP280;34424;52.234;6.500;2023-05-29T14:08:27;102410.1;;;20.87
48628;BMP280;34424;52.234;6.500;2023-05-29T14:13:28;102404.4;;;21.14
48628;BMP280;34424;52.234;6.500;2023-05-29T14:18:27;102410;;;20.15
48628;BMP280;34424;52.234;6.500;2023-05-29T14:23:27;102406.8;;;20.09
48628;BMP280;34424;52.234;6.500;2023-05-29T14:28:27;102409.4;;;20.36
48628;BMP280;34424;52.234;6.500;2023-05-29T14:33:27;102410;;;20.29
48628;BMP280;34424;52.234;6.500;2023-05-29T14:38:27;102402.9;;;19.94
48628;BMP280;34424;52.234;6.500;2023-05-29T14:43:27;102411;;;20.33
48628;BMP280;34424;52.234;6.500;2023-05-29T14:48:27;102404.8;;;20.42
48628;BMP280;34424;52.234;6.500;2023-05-29T14:53:27;102400.2;;;20.24
48628;BMP280;34424;52.234;6.500;2023-05-29T14:58:27;102403.8;;;20.36
48628;BMP280;34424;52.234;6.500;2023-05-29T15:03:27;102399.7;;;20.83
48628;BMP280;34424;52.234;6.500;2023-05-29T15:08:27;102407.4;;;20.57
48628;BMP280;34424;52.234;6.500;2023-05-29T15:13:27;102404.9;;;20.75
48628;BMP280;34424;52.234;6.500;2023-05-29T15:18:27;102392.8;;;21.35
48628;BMP280;34424;52.234;6.500;2023-05-29T15:23:27;102405.1;;;21.7
48628;BMP280;34424;52.234;6.500;2023-05-29T15:28:27;102408.9;;;20.64
48628;BMP280;34424;52.234;6.500;2023-05-29T15:33:27;102402.8;;;20.54
48628;BMP280;34424;52.234;6.500;2023-05-29T15:38:27;102399.1;;;20.54
48628;BMP280;34424;52.234;6.500;2023-05-29T15:43:27;102401.8;;;20.85
48628;BMP280;34424;52.234;6.500;2023-05-29T15:48:27;102400.1;;;20.78
48628;BMP280;34424;52.234;6.500;2023-05-29T15:53:27;102402.8;;;20.84
48628;BMP280;34424;52.234;6.500;2023-05-29T15:58:27;102397.7;;;20.88
48628;BMP280;34424;52.234;6.500;2023-05-29T16:03:27;102403.3;;;20.67
48628;BMP280;34424;52.234;6.500;2023-05-29T16:08:28;102397.5;;;20.76
48628;BMP280;34424;52.234;6.500;2023-05-29T16:13:27;102400.6;;;20.64
48628;BMP280;34424;52.234;6.500;2023-05-29T16:18:27;102395.8;;;20.74
48628;BMP280;34424;52.234;6.500;2023-05-29T16:23:27;102397.9;;;20.48
48628;BMP280;34424;52.234;6.500;2023-05-29T16:28:27;102396.4;;;20.78
48628;BMP280;34424;52.234;6.500;2023-05-29T16:33:27;102404.1;;;20.3
48628;BMP280;34424;52.234;6.500;2023-05-29T16:38:27;102396.7;;;20.36
48628;BMP280;34424;52.234;6.500;2023-05-29T16:43:27;102404.2;;;19.4
48628;BMP280;34424;52.234;6.500;2023-05-29T16:48:27;102411.1;;;19.29
48628;BMP280;34424;52.234;6.500;2023-05-29T16:53:27;102399.4;;;19.2
48628;BMP280;34424;52.234;6.500;2023-05-29T16:58:27;102403;;;18.73
48628;BMP280;34424;52.234;6.500;2023-05-29T17:03:27;102400.5;;;19.05
48628;BMP280;34424;52.234;6.500;2023-05-29T17:08:27;102408.8;;;19.14
48628;BMP280;34424;52.234;6.500;2023-05-29T17:13:27;102405.7;;;18.82
48628;BMP280;34424;52.234;6.500;2023-05-29T17:18:27;102412;;;18.61
48628;BMP280;34424;52.234;6.500;2023-05-29T17:23:27;102413.2;;;18.13
48628;BMP280;34424;52.234;6.500;2023-05-29T17:28:27;102410.2;;;18.2
48628;BMP280;34424;52.234;6.500;2023-05-29T17:35:52;102414.8;;;18.11
48628;BMP280;34424;52.234;6.500;2023-05-29T17:40:52;102420.7;;;18.47
48628;BMP280;34424;52.234;6.500;2023-05-29T17:45:52;102428;;;18.23
48628;BMP280;34424;52.234;6.500;2023-05-29T17:50:52;102433.6;;;17.46
48628;BMP280;34424;52.234;6.500;2023-05-29T17:55:52;102438;;;16.52
48628;BMP280;34424;52.234;6.500;2023-05-29T18:00:52;102437.1;;;15.68
48628;BMP280;34424;52.234;6.500;2023-05-29T18:05:52;102444.9;;;15.34
48628;BMP280;34424;52.234;6.500;2023-05-29T18:10:52;102446.4;;;15.05
48628;BMP280;34424;52.234;6.500;2023-05-29T18:15:52;102442;;;14.76
48628;BMP280;34424;52.234;6.500;2023-05-29T18:20:52;102438.3;;;14.37
48628;BMP280;34424;52.234;6.500;2023-05-29T18:25:52;102441.8;;;14.13
48628;BMP280;34424;52.234;6.500;2023-05-29T18:30:52;102446;;;14
48628;BMP280;34424;52.234;6.500;2023-05-29T18:35:52;102443.9;;;13.82
48628;BMP280;34424;52.234;6.500;2023-05-29T18:40:52;102444.7;;;13.69
48628;BMP280;34424;52.234;6.500;2023-05-29T18:45:52;102456.7;;;13.57
48628;BMP280;34424;52.234;6.500;2023-05-29T18:50:52;102450.2;;;13.3
48628;BMP280;34424;52.234;6.500;2023-05-29T18:55:52;102454.3;;;13.13
48628;BMP280;34424;52.234;6.500;2023-05-29T19:00:52;102454.8;;;12.85
48628;BMP280;34424;52.234;6.500;2023-05-29T19:05:52;102465.1;;;12.61
48628;BMP280;34424;52.234;6.500;2023-05-29T19:10:52;102464.7;;;12.36
48628;BMP280;34424;52.234;6.500;2023-05-29T19:15:52;102461.5;;;12.11
48628;BMP280;34424;52.234;6.500;2023-05-29T19:20:52;102473;;;11.84
48628;BMP280;34424;52.234;6.500;2023-05-29T19:25:52;102470.3;;;11.64
48628;BMP280;34424;52.234;6.500;2023-05-29T19:30:52;102480.1;;;11.45
48628;BMP280;34424;52.234;6.500;2023-05-29T19:35:52;102485.4;;;11.23
48628;BMP280;34424;52.234;6.500;2023-05-29T19:40:52;102484;;;11.03
48628;BMP280;34424;52.234;6.500;2023-05-29T19:45:52;102483.8;;;10.89
48628;BMP280;34424;52.234;6.500;2023-05-29T19:50:52;102481.7;;;10.73
48628;BMP280;34424;52.234;6.500;2023-05-29T19:55:52;102493.2;;;10.57
48628;BMP280;34424;52.234;6.500;2023-05-29T20:00:52;102499.8;;;10.51
48628;BMP280;34424;52.234;6.500;2023-05-29T20:05:52;102501.1;;;10.37
48628;BMP280;34424;52.234;6.500;2023-05-29T20:10:52;102506.8;;;10.28
48628;BMP280;34424;52.234;6.500;2023-05-29T20:15:52;102510.7;;;10.21
48628;BMP280;34424;52.234;6.500;2023-05-29T20:20:52;102526.3;;;10.1
48628;BMP280;34424;52.234;6.500;2023-05-29T20:25:52;102527;;;9.99
48628;BMP280;34424;52.234;6.500;2023-05-29T20:30:52;102530.6;;;9.93
48628;BMP280;34424;52.234;6.500;2023-05-29T20:35:52;102541.8;;;9.77
48628;BMP280;34424;52.234;6.500;2023-05-29T20:40:52;102538.9;;;9.57
48628;BMP280;34424;52.234;6.500;2023-05-29T20:45:53;102536.4;;;9.38
48628;BMP280;34424;52.234;6.500;2023-05-29T20:50:52;102544.3;;;9.36
48628;BMP280;34424;52.234;6.500;2023-05-29T20:55:52;102538.9;;;9.27
48628;BMP280;34424;52.234;6.500;2023-05-29T21:00:52;102540;;;9.2
48628;BMP280;34424;52.234;6.500;2023-05-29T21:05:52;102537.4;;;9.18
48628;BMP280;34424;52.234;6.500;2023-05-29T21:10:52;102538.3;;;9.05
48628;BMP280;34424;52.234;6.500;2023-05-29T21:15:52;102537;;;8.98
48628;BMP280;34424;52.234;6.500;2023-05-29T21:20:52;102539;;;8.91
48628;BMP280;34424;52.234;6.500;2023-05-29T21:25:52;102539.6;;;8.87
48628;BMP280;34424;52.234;6.500;2023-05-29T21:30:52;102546.3;;;8.83
48628;BMP280;34424;52.234;6.500;2023-05-29T21:35:52;102544.7;;;8.76
48628;BMP280;34424;52.234;6.500;2023-05-29T21:40:52;102549.4;;;8.72
48628;BMP280;34424;52.234;6.500;2023-05-29T21:45:52;102550.3;;;8.7
48628;BMP280;34424;52.234;6.500;2023-05-29T21:50:52;102556.6;;;8.64
48628;BMP280;34424;52.234;6.500;2023-05-29T21:55:52;102556.6;;;8.59
48628;BMP280;34424;52.234;6.500;2023-05-29T22:00:52;102553.9;;;8.53
48628;BMP280;34424;52.234;6.500;2023-05-29T22:05:52;102558.5;;;8.49
48628;BMP280;34424;52.234;6.500;2023-05-29T22:10:52;102557.4;;;8.37
48628;BMP280;34424;52.234;6.500;2023-05-29T22:15:52;102565;;;8.26
48628;BMP280;34424;52.234;6.500;2023-05-29T22:20:52;102569.5;;;8.15
48628;BMP280;34424;52.234;6.500;2023-05-29T22:25:52;102565.3;;;8.02
48628;BMP280;34424;52.234;6.500;2023-05-29T22:30:52;102564.2;;;7.94
48628;BMP280;34424;52.234;6.500;2023-05-29T22:35:52;102567.2;;;7.86
48628;BMP280;34424;52.234;6.500;2023-05-29T22:40:52;102568.2;;;7.69
48628;BMP280;34424;52.234;6.500;2023-05-29T22:45:52;102580.3;;;7.65
48628;BMP280;34424;52.234;6.500;2023-05-29T22:50:52;102576.2;;;7.61
48628;BMP280;34424;52.234;6.500;2023-05-29T22:55:52;102573.7;;;7.49
48628;BMP280;34424;52.234;6.500;2023-05-29T23:00:52;102575.4;;;7.4
48628;BMP280;34424;52.234;6.500;2023-05-29T23:05:52;102577.7;;;7.3
48628;BMP280;34424;52.234;6.500;2023-05-29T23:10:52;102575.5;;;7.2
48628;BMP280;34424;52.234;6.500;2023-05-29T23:15:52;102569.1;;;7.11
48628;BMP280;34424;52.234;6.500;2023-05-29T23:20:52;102574.9;;;7.07
48628;BMP280;34424;52.234;6.500;2023-05-29T23:25:52;102559.7;;;7.01
48628;BMP280;34424;52.234;6.500;2023-05-29T23:30:52;102574.3;;;6.96
48628;BMP280;34424;52.234;6.500;2023-05-29T23:35:52;102573.1;;;6.94
48628;BMP280;34424;52.234;6.500;2023-05-29T23:40:52;102574.4;;;6.89
48628;BMP280;34424;52.234;6.500;2023-05-29T23:45:52;102577.2;;;6.85
48628;BMP280;34424;52.234;6.500;2023-05-29T23:50:52;102575;;;6.79
48628;BMP280;34424;52.234;6.500;2023-05-29T23:55:52;102575.5;;;6.69
